Stations météo

réclame
Mon MeteoGroup
Bealach, Grande-Bretagne (3039): Température de l'air & dewpoint: 13.07.2019 20:00:00 - 19.07.2019 20:00:00 (BST)Bealach, Grande-Bretagne (3039): Vitesse du vent & gusts: 13.07.2019 20:00:00 - 19.07.2019 20:00:00 (BST)Bealach, Grande-Bretagne (3039): Direction du vent: 13.07.2019 20:00:00 - 19.07.2019 20:00:00 (BST)
Date & Time tt [°C] td [°C] ff [km/h] ff [knt] fx [km/h] fx [knt] dd
19.07.2019 20:00:00 - - - - - - -
19.07.2019 19:00:00 10,3 6,3 11 6 - - SW
19.07.2019 18:00:00 10,4 4,5 22 12 - - SW
19.07.2019 17:00:00 9,9 6,7 22 12 - - SSW
19.07.2019 16:00:00 9,2 6,0 29 16 46 25 SSW
19.07.2019 15:00:00 9,0 7,7 29 16 - - SSW
19.07.2019 14:00:00 8,6 6,8 28 15 - - SSW
19.07.2019 13:00:00 8,3 6,6 31 17 48 26 SSW
19.07.2019 12:00:00 8,4 7,8 37 20 - - SSW
19.07.2019 11:00:00 8,1 7,9 34 18 48 26 SSW
19.07.2019 10:00:00 7,4 6,7 28 15 - - S
19.07.2019 09:00:00 7,4 7,4 22 12 - - SSW
19.07.2019 08:00:00 7,8 7,8 28 15 - - SSW
19.07.2019 07:00:00 8,1 8,0 35 19 55 30 SSW
19.07.2019 06:00:00 8,0 8,0 39 21 54 29 SSW
19.07.2019 05:00:00 7,9 7,9 39 21 55 30 SSW
19.07.2019 04:00:00 7,9 7,8 42 23 52 28 SSW
19.07.2019 03:00:00 8,2 8,2 34 18 - - SW
19.07.2019 02:00:00 8,2 8,2 35 19 52 28 SSW
19.07.2019 01:00:00 8,2 8,2 39 21 52 28 SSW
19.07.2019 00:00:00 8,3 8,2 37 20 48 26 SSW
18.07.2019 23:00:00 8,2 8,2 34 18 - - SW
18.07.2019 22:00:00 8,2 8,2 24 13 - - SW
18.07.2019 21:00:00 8,4 8,4 26 14 46 25 SW
18.07.2019 20:00:00 8,3 8,3 41 22 55 30 WSW
18.07.2019 19:00:00 8,7 8,7 42 23 59 32 WSW
18.07.2019 18:00:00 8,4 8,4 44 24 57 31 WSW
18.07.2019 17:00:00 8,6 8,6 35 19 52 28 WSW
18.07.2019 16:00:00 8,3 8,3 29 16 54 29 WSW
18.07.2019 15:00:00 8,7 8,7 41 22 52 28 SW
18.07.2019 14:00:00 8,6 8,6 37 20 67 36 SW
18.07.2019 13:00:00 8,4 8,4 54 29 67 36 SSW
18.07.2019 12:00:00 8,2 8,1 46 25 61 33 SSW
18.07.2019 11:00:00 8,2 7,8 50 27 61 33 SSW
18.07.2019 10:00:00 8,5 8,3 29 16 - - SSW
18.07.2019 09:00:00 8,1 8,1 24 13 - - SW
18.07.2019 08:00:00 8,1 8,1 35 19 52 28 WSW
18.07.2019 07:00:00 8,5 8,5 35 19 55 30 SW
18.07.2019 06:00:00 8,1 8,1 42 23 54 29 SSW
18.07.2019 05:00:00 8,4 8,4 41 22 54 29 SSW
18.07.2019 04:00:00 8,2 8,2 34 18 - - SSW
18.07.2019 03:00:00 8,1 8,1 31 17 - - SW
18.07.2019 02:00:00 8,0 8,0 31 17 46 25 SW
18.07.2019 01:00:00 8,5 8,5 37 20 46 25 SSW
18.07.2019 00:00:00 8,2 8,2 31 17 46 25 SSW
17.07.2019 23:00:00 8,1 8,1 34 18 - - SSW
17.07.2019 22:00:00 8,2 8,2 29 16 - - SSW
17.07.2019 21:00:00 8,0 8,0 28 15 - - W
17.07.2019 20:00:00 8,3 8,3 28 15 - - WSW
17.07.2019 19:00:00 9,0 8,9 26 14 46 25 WSW
17.07.2019 18:00:00 10,2 10,1 44 24 67 36 SSW
17.07.2019 17:00:00 10,2 10,1 39 21 65 35 S
17.07.2019 16:00:00 10,0 10,0 28 15 65 35 S
17.07.2019 15:00:00 9,6 9,6 41 22 67 36 SSE
17.07.2019 14:00:00 9,4 9,3 52 28 80 43 SSE
17.07.2019 13:00:00 9,3 9,3 44 24 76 41 SSE
17.07.2019 12:00:00 9,2 9,2 48 26 63 34 S
17.07.2019 11:00:00 8,8 8,8 34 18 72 39 S
17.07.2019 10:00:00 9,2 9,1 46 25 80 43 SSE
17.07.2019 09:00:00 9,5 9,5 54 29 87 47 SSE
17.07.2019 08:00:00 9,7 9,7 31 17 70 38 SSE
17.07.2019 07:00:00 9,9 9,9 29 16 70 38 SSE
17.07.2019 06:00:00 9,9 9,9 41 22 74 40 SSE
17.07.2019 05:00:00 9,4 9,3 24 13 - - S
17.07.2019 04:00:00 9,2 9,2 22 12 50 27 S
17.07.2019 03:00:00 9,4 9,4 18 10 - - S
17.07.2019 02:00:00 9,4 9,3 24 13 - - S
17.07.2019 01:00:00 9,2 9,2 24 13 48 26 S
17.07.2019 00:00:00 9,4 9,2 29 16 46 25 S
16.07.2019 23:00:00 9,5 8,8 26 14 - - S
16.07.2019 22:00:00 9,6 8,5 35 19 50 27 S
16.07.2019 21:00:00 10,1 8,1 34 18 48 26 S
16.07.2019 20:00:00 10,2 8,8 34 18 - - S
16.07.2019 19:00:00 10,9 8,1 26 14 48 26 S
16.07.2019 18:00:00 10,9 6,4 37 20 - - SSW
16.07.2019 17:00:00 10,9 7,2 37 20 46 25 SSW
16.07.2019 16:00:00 11,0 7,8 37 20 52 28 SSW
16.07.2019 15:00:00 11,2 7,2 39 21 48 26 SSW
16.07.2019 14:00:00 10,2 8,8 34 18 - - SSW
16.07.2019 13:00:00 10,0 8,3 35 19 - - SSW
16.07.2019 12:00:00 9,9 8,6 35 19 - - SSW
16.07.2019 11:00:00 9,9 9,9 31 17 - - SSW
16.07.2019 10:00:00 9,9 9,8 31 17 - - S
16.07.2019 09:00:00 10,1 10,1 22 12 - - S
16.07.2019 08:00:00 10,0 9,8 26 14 - - SSW
16.07.2019 07:00:00 10,5 9,4 31 17 - - S
16.07.2019 06:00:00 11,1 9,0 22 12 - - S
16.07.2019 05:00:00 11,0 9,4 21 11 - - S
16.07.2019 04:00:00 11,3 9,9 24 13 - - S
16.07.2019 03:00:00 11,4 10,3 21 11 - - SSE
16.07.2019 02:00:00 11,4 10,4 22 12 - - S
16.07.2019 01:00:00 11,1 10,2 22 12 - - SSW
16.07.2019 00:00:00 11,6 9,9 15 8 - - S
15.07.2019 23:00:00 11,9 10,0 18 10 - - SSW
15.07.2019 22:00:00 12,3 9,8 15 8 - - S
15.07.2019 21:00:00 12,7 8,8 13 7 - - W
15.07.2019 20:00:00 13,5 8,2 21 11 - - SW
15.07.2019 19:00:00 13,6 8,1 22 12 - - SW
15.07.2019 18:00:00 13,9 6,7 28 15 - - SW
15.07.2019 17:00:00 14,7 6,8 18 10 - - SSW
15.07.2019 16:00:00 14,2 6,9 15 8 - - SSW
15.07.2019 15:00:00 13,8 5,7 16 9 - - SW
15.07.2019 14:00:00 14,0 4,8 8 4 - - SSW
15.07.2019 13:00:00 12,8 5,4 21 11 - - S
15.07.2019 12:00:00 12,6 4,7 22 12 - - SSW
15.07.2019 11:00:00 11,6 7,1 21 11 - - SSW
15.07.2019 10:00:00 11,4 5,1 16 9 - - S
15.07.2019 09:00:00 11,1 4,9 22 12 - - S
15.07.2019 08:00:00 11,0 6,8 22 12 - - S
15.07.2019 07:00:00 10,7 7,6 24 13 - - S
15.07.2019 06:00:00 10,4 8,2 16 9 - - SSE
15.07.2019 05:00:00 10,4 8,9 16 9 - - SSE
15.07.2019 04:00:00 10,4 9,4 11 6 - - SE
15.07.2019 03:00:00 10,2 9,4 11 6 - - SE
15.07.2019 02:00:00 10,5 9,9 9 5 - - SE
15.07.2019 01:00:00 10,3 9,2 9 5 - - ESE
15.07.2019 00:00:00 11,1 9,6 5 3 - - ESE
14.07.2019 23:00:00 11,1 8,8 8 4 - - ESE
14.07.2019 22:00:00 11,4 3,2 4 2 - - E
14.07.2019 21:00:00 12,4 -0,8 2 1 - - SE
14.07.2019 20:00:00 12,6 3,5 8 4 - - N
14.07.2019 19:00:00 12,0 5,0 15 8 - - NNW
14.07.2019 18:00:00 11,8 5,0 15 8 - - NNW
14.07.2019 17:00:00 12,0 3,9 11 6 - - NW
14.07.2019 16:00:00 11,5 2,5 8 4 - - N
14.07.2019 15:00:00 11,2 3,7 11 6 - - NNW
14.07.2019 14:00:00 11,3 2,2 5 3 - - S
14.07.2019 13:00:00 11,0 -0,7 5 3 - - ESE
14.07.2019 12:00:00 9,5 -1,8 5 3 - - NW
14.07.2019 11:00:00 8,6 2,2 5 3 - - N
14.07.2019 10:00:00 7,6 0,3 5 3 - - N
14.07.2019 09:00:00 6,5 2,5 8 4 - - N
14.07.2019 08:00:00 6,8 2,6 9 5 - - NNE
14.07.2019 07:00:00 6,0 4,2 11 6 - - N
14.07.2019 06:00:00 6,0 5,0 11 6 - - N
14.07.2019 05:00:00 5,9 5,7 8 4 - - NW
14.07.2019 04:00:00 6,0 5,9 4 2 - - WNW
14.07.2019 03:00:00 6,5 6,3 11 6 - - N
14.07.2019 02:00:00 6,7 5,8 5 3 - - NW
14.07.2019 01:00:00 6,9 6,1 8 4 - - NNW
14.07.2019 00:00:00 7,0 6,9 5 3 - - N
13.07.2019 23:00:00 6,9 6,9 16 9 - - NNW
13.07.2019 22:00:00 6,9 6,9 9 5 - - NW
13.07.2019 21:00:00 7,0 6,6 21 11 - - NNW
13.07.2019 20:00:00 7,6 6,7 24 13 - - NNW

tt = Température de l'air
td = dewpoint
ff = Vitesse du vent
fx = gusts
dd = Direction du vent

stations d'obs. à proximité